sensor_id;sensor_type;location;lat;lon;timestamp;P1;durP1;ratioP1;P2;durP2;ratioP2
4023;SDS011;2026;51.002;13.668;2023-01-15T00:03:57;0.70;;;0.70;;
4023;SDS011;2026;51.002;13.668;2023-01-15T00:09:00;1.00;;;0.70;;
4023;SDS011;2026;51.002;13.668;2023-01-15T00:14:05;0.60;;;0.60;;
4023;SDS011;2026;51.002;13.668;2023-01-15T00:19:08;1.33;;;0.70;;
4023;SDS011;2026;51.002;13.668;2023-01-15T00:24:12;0.70;;;0.70;;
4023;SDS011;2026;51.002;13.668;2023-01-15T00:29:34;0.80;;;0.70;;
4023;SDS011;2026;51.002;13.668;2023-01-15T00:34:37;0.83;;;0.70;;
4023;SDS011;2026;51.002;13.668;2023-01-15T00:39:40;0.83;;;0.80;;
4023;SDS011;2026;51.002;13.668;2023-01-15T00:44:45;1.90;;;0.70;;
4023;SDS011;2026;51.002;13.668;2023-01-15T00:49:48;0.70;;;0.70;;
4023;SDS011;2026;51.002;13.668;2023-01-15T00:54:51;0.60;;;0.60;;
4023;SDS011;2026;51.002;13.668;2023-01-15T00:59:57;0.80;;;0.70;;
4023;SDS011;2026;51.002;13.668;2023-01-15T01:05:01;1.17;;;0.70;;
4023;SDS011;2026;51.002;13.668;2023-01-15T01:10:04;0.70;;;0.60;;
4023;SDS011;2026;51.002;13.668;2023-01-15T01:15:10;0.70;;;0.50;;
4023;SDS011;2026;51.002;13.668;2023-01-15T01:20:14;0.70;;;0.70;;
4023;SDS011;2026;51.002;13.668;2023-01-15T01:25:21;1.23;;;0.70;;
4023;SDS011;2026;51.002;13.668;2023-01-15T01:30:25;1.03;;;0.50;;
4023;SDS011;2026;51.002;13.668;2023-01-15T01:35:28;0.90;;;0.70;;
4023;SDS011;2026;51.002;13.668;2023-01-15T01:40:32;0.50;;;0.50;;
4023;SDS011;2026;51.002;13.668;2023-01-15T01:45:36;0.70;;;0.67;;
4023;SDS011;2026;51.002;13.668;2023-01-15T01:50:39;0.97;;;0.70;;
4023;SDS011;2026;51.002;13.668;2023-01-15T01:55:43;1.00;;;0.70;;
4023;SDS011;2026;51.002;13.668;2023-01-15T02:00:48;0.90;;;0.60;;
4023;SDS011;2026;51.002;13.668;2023-01-15T02:05:53;1.57;;;0.80;;
4023;SDS011;2026;51.002;13.668;2023-01-15T02:11:01;0.60;;;0.60;;
4023;SDS011;2026;51.002;13.668;2023-01-15T02:16:10;0.97;;;0.70;;
4023;SDS011;2026;51.002;13.668;2023-01-15T02:21:20;0.90;;;0.70;;
4023;SDS011;2026;51.002;13.668;2023-01-15T02:26:45;0.60;;;0.60;;
4023;SDS011;2026;51.002;13.668;2023-01-15T02:31:58;0.70;;;0.70;;
4023;SDS011;2026;51.002;13.668;2023-01-15T02:37:09;0.83;;;0.80;;
4023;SDS011;2026;51.002;13.668;2023-01-15T02:42:18;1.47;;;0.80;;
4023;SDS011;2026;51.002;13.668;2023-01-15T02:47:23;1.00;;;0.70;;
4023;SDS011;2026;51.002;13.668;2023-01-15T02:52:32;0.60;;;0.60;;
4023;SDS011;2026;51.002;13.668;2023-01-15T02:57:40;0.90;;;0.70;;
4023;SDS011;2026;51.002;13.668;2023-01-15T03:02:50;0.83;;;0.70;;
4023;SDS011;2026;51.002;13.668;2023-01-15T03:07:58;1.23;;;0.73;;
4023;SDS011;2026;51.002;13.668;2023-01-15T03:13:08;0.90;;;0.70;;
4023;SDS011;2026;51.002;13.668;2023-01-15T03:18:24;0.70;;;0.60;;
4023;SDS011;2026;51.002;13.668;2023-01-15T03:23:30;0.60;;;0.60;;
4023;SDS011;2026;51.002;13.668;2023-01-15T03:28:41;0.60;;;0.50;;
4023;SDS011;2026;51.002;13.668;2023-01-15T03:33:45;0.80;;;0.60;;
4023;SDS011;2026;51.002;13.668;2023-01-15T03:38:53;1.20;;;0.70;;
4023;SDS011;2026;51.002;13.668;2023-01-15T03:44:19;0.60;;;0.50;;
4023;SDS011;2026;51.002;13.668;2023-01-15T03:49:30;0.70;;;0.70;;
4023;SDS011;2026;51.002;13.668;2023-01-15T03:54:52;0.60;;;0.60;;
4023;SDS011;2026;51.002;13.668;2023-01-15T04:00:09;0.60;;;0.60;;
4023;SDS011;2026;51.002;13.668;2023-01-15T04:05:16;0.70;;;0.63;;
4023;SDS011;2026;51.002;13.668;2023-01-15T04:10:22;1.03;;;0.70;;
4023;SDS011;2026;51.002;13.668;2023-01-15T04:15:27;0.60;;;0.53;;
4023;SDS011;2026;51.002;13.668;2023-01-15T04:20:30;0.60;;;0.60;;
4023;SDS011;2026;51.002;13.668;2023-01-15T04:25:35;0.73;;;0.63;;
4023;SDS011;2026;51.002;13.668;2023-01-15T04:30:41;0.83;;;0.70;;
4023;SDS011;2026;51.002;13.668;2023-01-15T04:35:44;0.80;;;0.70;;
4023;SDS011;2026;51.002;13.668;2023-01-15T04:40:47;0.70;;;0.60;;
4023;SDS011;2026;51.002;13.668;2023-01-15T04:46:09;0.80;;;0.70;;
4023;SDS011;2026;51.002;13.668;2023-01-15T04:51:12;0.70;;;0.70;;
4023;SDS011;2026;51.002;13.668;2023-01-15T04:56:15;0.60;;;0.60;;
4023;SDS011;2026;51.002;13.668;2023-01-15T05:01:20;1.67;;;0.60;;
4023;SDS011;2026;51.002;13.668;2023-01-15T05:06:23;0.70;;;0.70;;
4023;SDS011;2026;51.002;13.668;2023-01-15T05:11:26;0.90;;;0.70;;
4023;SDS011;2026;51.002;13.668;2023-01-15T05:16:31;0.60;;;0.60;;
4023;SDS011;2026;51.002;13.668;2023-01-15T05:21:36;0.90;;;0.67;;
4023;SDS011;2026;51.002;13.668;2023-01-15T05:26:42;0.60;;;0.60;;
4023;SDS011;2026;51.002;13.668;2023-01-15T05:31:46;0.50;;;0.50;;
4023;SDS011;2026;51.002;13.668;2023-01-15T05:36:49;0.70;;;0.60;;
4023;SDS011;2026;51.002;13.668;2023-01-15T05:41:52;0.70;;;0.60;;
4023;SDS011;2026;51.002;13.668;2023-01-15T05:46:57;1.27;;;0.60;;
4023;SDS011;2026;51.002;13.668;2023-01-15T05:52:02;0.60;;;0.60;;
4023;SDS011;2026;51.002;13.668;2023-01-15T05:57:06;0.70;;;0.60;;
4023;SDS011;2026;51.002;13.668;2023-01-15T06:02:13;0.80;;;0.50;;
4023;SDS011;2026;51.002;13.668;2023-01-15T06:07:15;0.80;;;0.67;;
4023;SDS011;2026;51.002;13.668;2023-01-15T06:12:18;1.20;;;0.53;;
4023;SDS011;2026;51.002;13.668;2023-01-15T06:17:23;0.70;;;0.50;;
4023;SDS011;2026;51.002;13.668;2023-01-15T06:22:26;0.87;;;0.50;;
4023;SDS011;2026;51.002;13.668;2023-01-15T06:27:30;0.60;;;0.50;;
4023;SDS011;2026;51.002;13.668;2023-01-15T06:32:34;0.90;;;0.53;;
4023;SDS011;2026;51.002;13.668;2023-01-15T06:37:37;0.70;;;0.70;;
4023;SDS011;2026;51.002;13.668;2023-01-15T06:42:40;1.10;;;0.77;;
4023;SDS011;2026;51.002;13.668;2023-01-15T06:48:01;0.70;;;0.60;;
4023;SDS011;2026;51.002;13.668;2023-01-15T06:53:04;0.60;;;0.60;;
4023;SDS011;2026;51.002;13.668;2023-01-15T06:58:07;0.60;;;0.50;;
4023;SDS011;2026;51.002;13.668;2023-01-15T07:03:12;0.87;;;0.87;;
4023;SDS011;2026;51.002;13.668;2023-01-15T07:08:15;0.80;;;0.80;;
4023;SDS011;2026;51.002;13.668;2023-01-15T07:13:18;1.80;;;1.00;;
4023;SDS011;2026;51.002;13.668;2023-01-15T07:18:22;2.07;;;0.70;;
4023;SDS011;2026;51.002;13.668;2023-01-15T07:23:26;1.00;;;0.83;;
4023;SDS011;2026;51.002;13.668;2023-01-15T07:28:29;1.00;;;0.90;;
4023;SDS011;2026;51.002;13.668;2023-01-15T07:33:33;2.30;;;0.80;;
4023;SDS011;2026;51.002;13.668;2023-01-15T07:38:36;1.93;;;1.30;;
4023;SDS011;2026;51.002;13.668;2023-01-15T07:43:40;1.17;;;1.07;;
4023;SDS011;2026;51.002;13.668;2023-01-15T07:49:01;1.90;;;0.90;;
4023;SDS011;2026;51.002;13.668;2023-01-15T07:54:21;1.30;;;0.97;;
4023;SDS011;2026;51.002;13.668;2023-01-15T07:59:24;1.80;;;1.30;;
4023;SDS011;2026;51.002;13.668;2023-01-15T08:04:29;2.10;;;1.30;;
4023;SDS011;2026;51.002;13.668;2023-01-15T08:09:32;2.60;;;1.30;;
4023;SDS011;2026;51.002;13.668;2023-01-15T08:14:34;1.47;;;1.00;;
4023;SDS011;2026;51.002;13.668;2023-01-15T08:19:56;1.40;;;1.00;;
4023;SDS011;2026;51.002;13.668;2023-01-15T08:24:59;1.47;;;1.37;;
4023;SDS011;2026;51.002;13.668;2023-01-15T08:30:03;1.83;;;1.50;;
4023;SDS011;2026;51.002;13.668;2023-01-15T08:35:08;3.93;;;1.50;;
4023;SDS011;2026;51.002;13.668;2023-01-15T08:40:13;3.03;;;2.73;;
4023;SDS011;2026;51.002;13.668;2023-01-15T08:45:16;4.87;;;4.47;;
4023;SDS011;2026;51.002;13.668;2023-01-15T08:50:20;1.47;;;1.13;;
4023;SDS011;2026;51.002;13.668;2023-01-15T08:55:23;1.30;;;1.20;;
4023;SDS011;2026;51.002;13.668;2023-01-15T09:00:26;1.60;;;1.30;;
4023;SDS011;2026;51.002;13.668;2023-01-15T09:05:30;1.20;;;1.10;;
4023;SDS011;2026;51.002;13.668;2023-01-15T09:10:33;2.23;;;1.77;;
4023;SDS011;2026;51.002;13.668;2023-01-15T09:15:36;1.67;;;1.20;;
4023;SDS011;2026;51.002;13.668;2023-01-15T09:20:40;1.27;;;1.17;;
4023;SDS011;2026;51.002;13.668;2023-01-15T09:25:50;2.90;;;2.60;;
4023;SDS011;2026;51.002;13.668;2023-01-15T09:30:53;3.00;;;1.83;;
4023;SDS011;2026;51.002;13.668;2023-01-15T09:35:58;1.60;;;1.40;;
4023;SDS011;2026;51.002;13.668;2023-01-15T09:41:01;1.70;;;1.60;;
4023;SDS011;2026;51.002;13.668;2023-01-15T09:46:33;1.70;;;1.50;;
4023;SDS011;2026;51.002;13.668;2023-01-15T09:51:45;1.10;;;1.00;;
4023;SDS011;2026;51.002;13.668;2023-01-15T09:56:58;1.53;;;1.00;;
4023;SDS011;2026;51.002;13.668;2023-01-15T10:02:03;2.20;;;1.30;;
4023;SDS011;2026;51.002;13.668;2023-01-15T10:07:20;1.10;;;1.00;;
4023;SDS011;2026;51.002;13.668;2023-01-15T10:12:27;1.13;;;1.03;;
4023;SDS011;2026;51.002;13.668;2023-01-15T10:17:40;1.33;;;1.23;;
4023;SDS011;2026;51.002;13.668;2023-01-15T10:22:57;1.40;;;1.30;;
4023;SDS011;2026;51.002;13.668;2023-01-15T10:28:17;1.10;;;0.83;;
4023;SDS011;2026;51.002;13.668;2023-01-15T10:39:03;1.30;;;1.00;;
4023;SDS011;2026;51.002;13.668;2023-01-15T10:44:17;1.00;;;0.90;;
4023;SDS011;2026;51.002;13.668;2023-01-15T10:49:25;0.80;;;0.80;;
4023;SDS011;2026;51.002;13.668;2023-01-15T10:54:34;0.70;;;0.70;;
4023;SDS011;2026;51.002;13.668;2023-01-15T10:59:41;0.60;;;0.60;;
4023;SDS011;2026;51.002;13.668;2023-01-15T11:04:50;0.80;;;0.63;;
4023;SDS011;2026;51.002;13.668;2023-01-15T11:09:55;0.70;;;0.60;;
4023;SDS011;2026;51.002;13.668;2023-01-15T11:15:12;1.03;;;0.80;;
4023;SDS011;2026;51.002;13.668;2023-01-15T11:20:33;0.90;;;0.70;;
4023;SDS011;2026;51.002;13.668;2023-01-15T11:25:47;5.13;;;0.70;;
4023;SDS011;2026;51.002;13.668;2023-01-15T11:30:53;1.07;;;0.90;;
4023;SDS011;2026;51.002;13.668;2023-01-15T11:35:57;2.37;;;1.53;;
4023;SDS011;2026;51.002;13.668;2023-01-15T11:41:03;3.10;;;1.30;;
4023;SDS011;2026;51.002;13.668;2023-01-15T11:46:18;1.30;;;1.20;;
4023;SDS011;2026;51.002;13.668;2023-01-15T11:51:42;1.20;;;1.07;;
4023;SDS011;2026;51.002;13.668;2023-01-15T11:56:51;1.37;;;0.80;;
4023;SDS011;2026;51.002;13.668;2023-01-15T12:01:55;0.80;;;0.80;;
4023;SDS011;2026;51.002;13.668;2023-01-15T12:07:00;3.57;;;1.23;;
4023;SDS011;2026;51.002;13.668;2023-01-15T12:12:09;2.20;;;1.00;;
4023;SDS011;2026;51.002;13.668;2023-01-15T12:17:27;1.67;;;1.17;;
4023;SDS011;2026;51.002;13.668;2023-01-15T12:22:43;1.33;;;1.23;;
4023;SDS011;2026;51.002;13.668;2023-01-15T12:28:03;1.40;;;1.03;;
4023;SDS011;2026;51.002;13.668;2023-01-15T12:33:14;1.00;;;0.90;;
4023;SDS011;2026;51.002;13.668;2023-01-15T12:38:26;1.10;;;1.00;;
4023;SDS011;2026;51.002;13.668;2023-01-15T12:43:45;1.33;;;1.10;;
4023;SDS011;2026;51.002;13.668;2023-01-15T12:49:12;1.17;;;1.03;;
4023;SDS011;2026;51.002;13.668;2023-01-15T12:54:28;0.93;;;0.87;;
4023;SDS011;2026;51.002;13.668;2023-01-15T12:59:40;1.10;;;0.80;;
4023;SDS011;2026;51.002;13.668;2023-01-15T13:04:49;0.73;;;0.73;;
4023;SDS011;2026;51.002;13.668;2023-01-15T13:09:57;1.83;;;0.90;;
4023;SDS011;2026;51.002;13.668;2023-01-15T13:15:12;1.47;;;0.90;;
4023;SDS011;2026;51.002;13.668;2023-01-15T13:20:24;1.00;;;0.97;;
4023;SDS011;2026;51.002;13.668;2023-01-15T13:25:40;0.90;;;0.80;;
4023;SDS011;2026;51.002;13.668;2023-01-15T13:31:00;0.73;;;0.73;;
4023;SDS011;2026;51.002;13.668;2023-01-15T13:36:12;1.03;;;0.90;;
4023;SDS011;2026;51.002;13.668;2023-01-15T13:41:20;1.10;;;1.00;;
4023;SDS011;2026;51.002;13.668;2023-01-15T13:46:42;1.60;;;0.90;;
4023;SDS011;2026;51.002;13.668;2023-01-15T13:51:47;0.83;;;0.70;;
4023;SDS011;2026;51.002;13.668;2023-01-15T13:56:51;2.40;;;0.80;;
4023;SDS011;2026;51.002;13.668;2023-01-15T14:01:56;1.17;;;0.80;;
4023;SDS011;2026;51.002;13.668;2023-01-15T14:06:59;1.57;;;0.73;;
4023;SDS011;2026;51.002;13.668;2023-01-15T14:12:05;0.67;;;0.60;;
4023;SDS011;2026;51.002;13.668;2023-01-15T14:22:58;2.07;;;0.77;;
4023;SDS011;2026;51.002;13.668;2023-01-15T14:28:18;0.80;;;0.80;;
4023;SDS011;2026;51.002;13.668;2023-01-15T14:33:33;1.00;;;0.80;;
4023;SDS011;2026;51.002;13.668;2023-01-15T14:38:53;0.93;;;0.90;;
4023;SDS011;2026;51.002;13.668;2023-01-15T14:43:59;3.00;;;1.37;;
4023;SDS011;2026;51.002;13.668;2023-01-15T14:54:31;0.83;;;0.80;;
4023;SDS011;2026;51.002;13.668;2023-01-15T14:59:37;2.30;;;1.80;;
4023;SDS011;2026;51.002;13.668;2023-01-15T15:04:48;1.67;;;1.50;;
4023;SDS011;2026;51.002;13.668;2023-01-15T15:09:57;2.90;;;2.23;;
4023;SDS011;2026;51.002;13.668;2023-01-15T15:15:05;0.80;;;0.73;;
4023;SDS011;2026;51.002;13.668;2023-01-15T15:20:18;2.17;;;1.93;;
4023;SDS011;2026;51.002;13.668;2023-01-15T15:25:28;1.00;;;0.77;;
4023;SDS011;2026;51.002;13.668;2023-01-15T15:30:35;1.00;;;0.80;;
4023;SDS011;2026;51.002;13.668;2023-01-15T15:35:44;0.83;;;0.80;;
4023;SDS011;2026;51.002;13.668;2023-01-15T15:40:52;1.37;;;0.90;;
4023;SDS011;2026;51.002;13.668;2023-01-15T15:45:56;1.20;;;1.10;;
4023;SDS011;2026;51.002;13.668;2023-01-15T15:51:29;2.03;;;1.10;;
4023;SDS011;2026;51.002;13.668;2023-01-15T15:56:36;2.70;;;0.90;;
4023;SDS011;2026;51.002;13.668;2023-01-15T16:01:41;0.80;;;0.70;;
4023;SDS011;2026;51.002;13.668;2023-01-15T16:06:44;0.80;;;0.70;;
4023;SDS011;2026;51.002;13.668;2023-01-15T16:11:50;1.87;;;0.93;;
4023;SDS011;2026;51.002;13.668;2023-01-15T16:16:54;1.00;;;0.90;;
4023;SDS011;2026;51.002;13.668;2023-01-15T16:21:57;0.80;;;0.80;;
4023;SDS011;2026;51.002;13.668;2023-01-15T16:27:02;1.97;;;0.90;;
4023;SDS011;2026;51.002;13.668;2023-01-15T16:32:09;2.03;;;1.00;;
4023;SDS011;2026;51.002;13.668;2023-01-15T16:37:20;2.23;;;1.20;;
4023;SDS011;2026;51.002;13.668;2023-01-15T16:42:28;2.73;;;1.40;;
4023;SDS011;2026;51.002;13.668;2023-01-15T16:47:35;0.87;;;0.87;;
4023;SDS011;2026;51.002;13.668;2023-01-15T16:52:48;1.40;;;1.27;;
4023;SDS011;2026;51.002;13.668;2023-01-15T16:58:01;3.77;;;1.00;;
4023;SDS011;2026;51.002;13.668;2023-01-15T17:03:17;1.30;;;1.03;;
4023;SDS011;2026;51.002;13.668;2023-01-15T17:08:23;1.80;;;1.20;;
4023;SDS011;2026;51.002;13.668;2023-01-15T17:13:35;1.93;;;1.20;;
4023;SDS011;2026;51.002;13.668;2023-01-15T17:18:39;1.10;;;1.00;;
4023;SDS011;2026;51.002;13.668;2023-01-15T17:23:43;2.53;;;1.30;;
4023;SDS011;2026;51.002;13.668;2023-01-15T17:28:48;1.83;;;1.20;;
4023;SDS011;2026;51.002;13.668;2023-01-15T17:33:51;3.70;;;1.53;;
4023;SDS011;2026;51.002;13.668;2023-01-15T17:38:54;1.53;;;1.43;;
4023;SDS011;2026;51.002;13.668;2023-01-15T17:43:59;1.77;;;1.33;;
4023;SDS011;2026;51.002;13.668;2023-01-15T17:49:02;1.97;;;1.07;;
4023;SDS011;2026;51.002;13.668;2023-01-15T17:54:05;1.43;;;1.20;;
4023;SDS011;2026;51.002;13.668;2023-01-15T17:59:10;1.60;;;1.00;;
4023;SDS011;2026;51.002;13.668;2023-01-15T18:04:45;2.30;;;1.17;;
4023;SDS011;2026;51.002;13.668;2023-01-15T18:10:09;2.60;;;1.50;;
4023;SDS011;2026;51.002;13.668;2023-01-15T18:15:20;1.80;;;1.53;;
4023;SDS011;2026;51.002;13.668;2023-01-15T18:20:23;1.90;;;1.47;;
4023;SDS011;2026;51.002;13.668;2023-01-15T18:25:26;1.87;;;1.40;;
4023;SDS011;2026;51.002;13.668;2023-01-15T18:30:30;2.60;;;1.40;;
4023;SDS011;2026;51.002;13.668;2023-01-15T18:35:35;1.80;;;1.10;;
4023;SDS011;2026;51.002;13.668;2023-01-15T18:40:38;4.63;;;1.63;;
4023;SDS011;2026;51.002;13.668;2023-01-15T18:45:44;3.00;;;1.30;;
4023;SDS011;2026;51.002;13.668;2023-01-15T18:51:05;1.93;;;1.20;;
4023;SDS011;2026;51.002;13.668;2023-01-15T18:56:09;1.23;;;1.13;;
4023;SDS011;2026;51.002;13.668;2023-01-15T19:01:13;1.30;;;1.20;;
4023;SDS011;2026;51.002;13.668;2023-01-15T19:06:20;1.20;;;1.00;;
4023;SDS011;2026;51.002;13.668;2023-01-15T19:11:23;3.50;;;0.90;;
4023;SDS011;2026;51.002;13.668;2023-01-15T19:16:27;1.10;;;1.00;;
4023;SDS011;2026;51.002;13.668;2023-01-15T19:21:44;4.50;;;1.60;;
4023;SDS011;2026;51.002;13.668;2023-01-15T19:26:49;2.27;;;1.30;;
4023;SDS011;2026;51.002;13.668;2023-01-15T19:31:54;1.37;;;1.23;;
4023;SDS011;2026;51.002;13.668;2023-01-15T19:36:57;2.93;;;1.40;;
4023;SDS011;2026;51.002;13.668;2023-01-15T19:42:00;1.97;;;1.30;;
4023;SDS011;2026;51.002;13.668;2023-01-15T19:47:22;1.83;;;1.30;;
4023;SDS011;2026;51.002;13.668;2023-01-15T19:52:47;4.37;;;1.30;;
4023;SDS011;2026;51.002;13.668;2023-01-15T19:57:56;2.43;;;1.50;;
4023;SDS011;2026;51.002;13.668;2023-01-15T20:03:01;1.80;;;1.20;;
4023;SDS011;2026;51.002;13.668;2023-01-15T20:08:05;4.50;;;1.20;;
4023;SDS011;2026;51.002;13.668;2023-01-15T20:13:11;1.90;;;1.63;;
4023;SDS011;2026;51.002;13.668;2023-01-15T20:18:33;2.47;;;0.90;;
4023;SDS011;2026;51.002;13.668;2023-01-15T20:23:36;3.43;;;1.40;;
4023;SDS011;2026;51.002;13.668;2023-01-15T20:28:40;4.97;;;1.20;;
4023;SDS011;2026;51.002;13.668;2023-01-15T20:33:48;2.30;;;1.10;;
4023;SDS011;2026;51.002;13.668;2023-01-15T20:38:51;1.80;;;1.20;;
4023;SDS011;2026;51.002;13.668;2023-01-15T20:43:54;1.27;;;1.00;;
4023;SDS011;2026;51.002;13.668;2023-01-15T20:49:16;1.90;;;1.43;;
4023;SDS011;2026;51.002;13.668;2023-01-15T20:54:30;3.93;;;1.37;;
4023;SDS011;2026;51.002;13.668;2023-01-15T20:59:33;4.40;;;1.37;;
4023;SDS011;2026;51.002;13.668;2023-01-15T21:04:37;2.87;;;1.30;;
4023;SDS011;2026;51.002;13.668;2023-01-15T21:09:40;1.83;;;1.30;;
4023;SDS011;2026;51.002;13.668;2023-01-15T21:14:43;1.53;;;1.10;;
4023;SDS011;2026;51.002;13.668;2023-01-15T21:19:47;4.80;;;1.40;;
4023;SDS011;2026;51.002;13.668;2023-01-15T21:24:50;1.17;;;1.07;;
4023;SDS011;2026;51.002;13.668;2023-01-15T21:29:54;2.60;;;1.10;;
4023;SDS011;2026;51.002;13.668;2023-01-15T21:34:59;1.63;;;1.10;;
4023;SDS011;2026;51.002;13.668;2023-01-15T21:40:01;3.80;;;1.67;;
4023;SDS011;2026;51.002;13.668;2023-01-15T21:45:05;2.20;;;1.43;;
4023;SDS011;2026;51.002;13.668;2023-01-15T21:50:12;4.50;;;1.27;;
4023;SDS011;2026;51.002;13.668;2023-01-15T21:55:17;3.37;;;1.50;;
4023;SDS011;2026;51.002;13.668;2023-01-15T22:00:20;2.80;;;1.63;;
4023;SDS011;2026;51.002;13.668;2023-01-15T22:05:25;3.03;;;1.03;;
4023;SDS011;2026;51.002;13.668;2023-01-15T22:10:27;2.37;;;1.43;;
4023;SDS011;2026;51.002;13.668;2023-01-15T22:15:31;3.00;;;1.10;;
4023;SDS011;2026;51.002;13.668;2023-01-15T22:20:35;3.83;;;1.67;;
4023;SDS011;2026;51.002;13.668;2023-01-15T22:25:38;3.07;;;1.27;;
4023;SDS011;2026;51.002;13.668;2023-01-15T22:30:43;1.50;;;1.10;;
4023;SDS011;2026;51.002;13.668;2023-01-15T22:35:55;5.27;;;1.37;;
4023;SDS011;2026;51.002;13.668;2023-01-15T22:40:59;2.60;;;1.50;;
4023;SDS011;2026;51.002;13.668;2023-01-15T22:46:08;2.07;;;1.20;;
4023;SDS011;2026;51.002;13.668;2023-01-15T22:51:14;2.07;;;1.10;;
4023;SDS011;2026;51.002;13.668;2023-01-15T22:56:17;2.10;;;1.57;;
4023;SDS011;2026;51.002;13.668;2023-01-15T23:01:20;3.97;;;1.30;;
4023;SDS011;2026;51.002;13.668;2023-01-15T23:06:24;1.60;;;1.00;;
4023;SDS011;2026;51.002;13.668;2023-01-15T23:11:29;2.07;;;1.23;;
4023;SDS011;2026;51.002;13.668;2023-01-15T23:16:31;2.90;;;1.00;;
4023;SDS011;2026;51.002;13.668;2023-01-15T23:21:37;1.53;;;1.03;;
4023;SDS011;2026;51.002;13.668;2023-01-15T23:26:40;2.50;;;1.10;;
4023;SDS011;2026;51.002;13.668;2023-01-15T23:31:43;1.53;;;0.90;;
4023;SDS011;2026;51.002;13.668;2023-01-15T23:36:47;0.87;;;0.80;;
4023;SDS011;2026;51.002;13.668;2023-01-15T23:41:50;2.37;;;1.40;;
4023;SDS011;2026;51.002;13.668;2023-01-15T23:47:11;2.67;;;1.10;;
4023;SDS011;2026;51.002;13.668;2023-01-15T23:52:15;3.73;;;1.00;;
4023;SDS011;2026;51.002;13.668;2023-01-15T23:57:18;1.73;;;1.00;;
